Time;durP1;ratioP1;P1;durP2;ratioP2;P2;SDS_P1;SDS_P2;PMS_P1;PMS_P2;Temp;Humidity;BMP_temperature;BMP_pressure;BME280_temperature;BME280_humidity;BME280_pressure;Samples;Min_cycle;Max_cycle;Signal;HPM_P1;HPM_P2
2022/07/18 00:01:58;;;;;;;1.13;1.03;;;23.60;46.70;;;;;;5066826;28;20632;-57
2022/07/18 00:04:24;;;;;;;1.37;1.27;;;23.60;46.70;;;;;;5069087;28;20439;-58
2022/07/18 00:06:50;;;;;;;1.30;1.20;;;23.60;46.70;;;;;;5065244;28;20429;-59
2022/07/18 00:09:17;;;;;;;1.40;1.30;;;23.60;46.60;;;;;;5061088;28;20457;-60
2022/07/18 00:11:44;;;;;;;1.30;1.20;;;23.60;46.70;;;;;;5070918;28;20190;-60
2022/07/18 00:14:10;;;;;;;1.10;1.10;;;23.60;46.70;;;;;;5075245;28;20424;-60
2022/07/18 00:16:35;;;;;;;1.40;1.30;;;23.60;46.60;;;;;;5066262;28;20417;-61
2022/07/18 00:19:02;;;;;;;1.30;1.20;;;23.60;46.80;;;;;;5061830;28;21013;-57
2022/07/18 00:21:29;;;;;;;1.20;1.10;;;23.60;46.70;;;;;;5063764;28;20230;-61
2022/07/18 00:23:55;;;;;;;1.40;1.30;;;23.60;46.70;;;;;;5059608;28;20458;-59
2022/07/18 00:26:20;;;;;;;1.30;1.20;;;23.60;46.70;;;;;;5063467;28;20427;-62
2022/07/18 00:28:46;;;;;;;1.30;1.20;;;23.60;46.70;;;;;;5073629;28;20841;-57
2022/07/18 00:31:13;;;;;;;1.20;1.10;;;23.60;46.70;;;;;;5068865;28;20177;-58
2022/07/18 00:33:39;;;;;;;1.40;1.30;;;23.60;46.70;;;;;;5062962;28;20192;-59
2022/07/18 00:36:06;;;;;;;1.27;1.17;;;23.60;46.70;;;;;;5061366;28;20426;-60
2022/07/18 00:38:31;;;;;;;1.23;1.13;;;23.60;46.70;;;;;;5060542;28;20469;-68
2022/07/18 00:40:57;;;;;;;1.30;1.20;;;23.60;46.70;;;;;;5059884;28;22371;-58
2022/07/18 00:43:24;;;;;;;1.33;1.23;;;23.60;46.70;;;;;;5064995;28;20188;-56
2022/07/18 00:45:52;;;;;;;1.40;1.30;;;23.60;46.70;;;;;;5071301;28;20581;-61
2022/07/18 00:48:19;;;;;;;2.10;1.63;;;23.60;47.50;;;;;;5061119;28;20548;-62
2022/07/18 00:50:45;;;;;;;1.40;1.30;;;23.60;46.70;;;;;;5060859;28;20442;-60
2022/07/18 00:53:12;;;;;;;1.50;1.20;;;23.60;46.70;;;;;;5060424;28;20438;-61
2022/07/18 00:55:43;;;;;;;1.20;1.10;;;23.60;46.70;;;;;;5060077;28;20429;-58
2022/07/18 00:58:11;;;;;;;1.40;1.30;;;23.60;46.70;;;;;;5066024;28;20453;-63
2022/07/18 01:03:23;;;;;;;2.07;1.47;;;23.60;46.70;;;;;;5069292;28;20479;-65
2022/07/18 01:05:49;;;;;;;1.40;1.30;;;23.60;46.70;;;;;;5062820;28;20911;-68
2022/07/18 01:08:15;;;;;;;1.30;1.20;;;23.60;46.80;;;;;;5059295;28;20491;-68
2022/07/18 01:10:42;;;;;;;1.40;1.30;;;23.60;46.80;;;;;;5066442;28;20174;-65
2022/07/18 01:13:09;;;;;;;1.30;1.20;;;23.60;46.80;;;;;;5061926;28;20435;-58
2022/07/18 01:15:36;;;;;;;1.30;1.20;;;23.60;46.80;;;;;;5069609;28;20483;-68
2022/07/18 01:18:03;;;;;;;1.43;1.33;;;23.60;46.80;;;;;;5065573;28;20469;-68
2022/07/18 01:20:31;;;;;;;1.20;1.10;;;23.60;46.70;;;;;;5067794;28;20572;-61
2022/07/18 01:22:58;;;;;;;1.30;1.20;;;23.60;46.80;;;;;;5061066;28;20429;-60
2022/07/18 01:25:24;;;;;;;1.20;1.10;;;23.60;46.80;;;;;;5060465;28;20434;-68
2022/07/18 01:27:50;;;;;;;1.33;1.23;;;23.60;46.80;;;;;;5062219;28;20464;-59
2022/07/18 01:30:15;;;;;;;1.40;1.30;;;23.60;46.80;;;;;;5072708;28;20282;-60
2022/07/18 01:32:44;;;;;;;1.30;1.20;;;23.60;46.70;;;;;;5070443;28;20417;-59
2022/07/18 01:35:11;;;;;;;1.40;1.30;;;23.60;46.80;;;;;;5063387;28;20296;-59
2022/07/18 01:37:37;;;;;;;3.57;1.30;;;23.60;46.70;;;;;;5065966;28;20498;-62
2022/07/18 01:40:10;;;;;;;1.30;1.20;;;23.60;46.70;;;;;;5067946;28;20530;-64
2022/07/18 01:42:36;;;;;;;1.80;1.70;;;23.60;46.70;;;;;;5060836;28;20454;-57
2022/07/18 01:45:03;;;;;;;1.47;1.37;;;23.60;46.80;;;;;;5058773;28;20549;-59
2022/07/18 01:47:28;;;;;;;0.97;0.90;;;23.60;46.80;;;;;;5071243;28;20305;-62
2022/07/18 01:49:54;;;;;;;1.43;1.33;;;23.60;46.90;;;;;;5060125;28;20538;-65
2022/07/18 01:52:20;;;;;;;1.40;1.30;;;23.60;47.60;;;;;;5059249;28;20182;-61
2022/07/18 01:54:46;;;;;;;1.50;1.30;;;23.60;46.80;;;;;;5059583;28;20422;-57
2022/07/18 01:57:11;;;;;;;1.27;1.17;;;23.60;46.80;;;;;;5060310;28;20624;-58
2022/07/18 01:59:37;;;;;;;1.30;1.20;;;23.60;46.80;;;;;;5068656;28;21198;-57
2022/07/18 02:02:05;;;;;;;1.40;1.30;;;23.60;46.80;;;;;;5073596;28;20220;-60
2022/07/18 02:07:15;;;;;;;1.60;1.50;;;23.60;46.80;;;;;;5060953;28;20424;-60
2022/07/18 02:09:40;;;;;;;1.23;1.13;;;23.60;47.60;;;;;;5058302;28;20810;-60
2022/07/18 02:12:06;;;;;;;1.40;1.30;;;23.60;46.80;;;;;;5062135;28;20182;-56
2022/07/18 02:14:32;;;;;;;1.40;1.30;;;23.60;46.80;;;;;;5061892;28;20166;-58
2022/07/18 02:16:57;;;;;;;3.47;1.20;;;23.60;46.80;;;;;;5069011;28;20185;-59
2022/07/18 02:19:23;;;;;;;1.20;1.10;;;23.60;46.80;;;;;;5061190;28;20287;-58
2022/07/18 02:21:48;;;;;;;1.23;1.13;;;23.60;46.80;;;;;;5059290;28;20185;-58
2022/07/18 02:24:14;;;;;;;1.57;1.47;;;23.60;46.80;;;;;;5058291;28;20393;-58
2022/07/18 02:26:40;;;;;;;1.33;1.23;;;23.60;46.80;;;;;;5058866;28;20174;-63
2022/07/18 02:29:08;;;;;;;1.30;1.20;;;23.60;46.80;;;;;;5062075;28;20457;-56
2022/07/18 02:31:33;;;;;;;1.27;1.17;;;23.60;46.80;;;;;;5065190;28;20236;-60
2022/07/18 02:34:01;;;;;;;1.30;1.20;;;23.60;46.80;;;;;;5067761;28;20421;-58
2022/07/18 02:36:26;;;;;;;1.23;1.13;;;23.60;46.80;;;;;;5059208;28;20184;-67
2022/07/18 02:38:52;;;;;;;1.37;1.27;;;23.60;46.80;;;;;;5059147;28;20466;-66
2022/07/18 02:41:18;;;;;;;1.40;1.30;;;23.60;46.80;;;;;;5058087;28;20188;-69
2022/07/18 02:43:44;;;;;;;1.40;1.30;;;23.60;46.80;;;;;;5062065;28;20192;-69
2022/07/18 02:46:09;;;;;;;1.30;1.20;;;23.60;46.90;;;;;;5062924;28;20242;-57
2022/07/18 02:48:36;;;;;;;1.43;1.33;;;23.60;46.90;;;;;;5071839;28;20216;-62
2022/07/18 02:51:02;;;;;;;1.50;1.40;;;23.60;46.90;;;;;;5065011;28;20195;-56
2022/07/18 02:53:28;;;;;;;1.30;1.20;;;23.60;46.90;;;;;;5064277;28;20433;-62
2022/07/18 02:55:54;;;;;;;1.30;1.20;;;23.60;47.00;;;;;;5066468;28;20449;-57
2022/07/18 02:58:19;;;;;;;1.40;1.30;;;23.60;46.80;;;;;;5068146;28;20550;-59
2022/07/18 03:00:45;;;;;;;1.20;1.10;;;23.60;47.00;;;;;;5062213;28;20176;-60
2022/07/18 03:03:11;;;;;;;1.40;1.30;;;23.60;46.90;;;;;;5073569;28;20507;-56
2022/07/18 03:05:37;;;;;;;1.40;1.30;;;23.60;46.90;;;;;;5071237;28;20192;-61
2022/07/18 03:08:03;;;;;;;1.37;1.27;;;23.60;46.90;;;;;;5065319;28;20174;-65
2022/07/18 03:10:29;;;;;;;1.23;1.13;;;23.60;46.80;;;;;;5062827;28;20181;-60
2022/07/18 03:12:54;;;;;;;1.30;1.20;;;23.60;46.90;;;;;;5062302;28;20506;-57
2022/07/18 03:15:20;;;;;;;1.40;1.30;;;23.60;46.90;;;;;;5069961;28;20181;-61
2022/07/18 03:17:45;;;;;;;1.30;1.20;;;23.60;46.90;;;;;;5067053;28;20237;-57
2022/07/18 03:20:11;;;;;;;1.50;1.40;;;23.60;46.90;;;;;;5073755;28;20205;-70
2022/07/18 03:22:37;;;;;;;1.30;1.20;;;23.60;46.90;;;;;;5062586;28;20209;-57
2022/07/18 03:25:03;;;;;;;1.50;1.40;;;23.60;46.90;;;;;;5072325;28;20281;-56
2022/07/18 03:27:29;;;;;;;1.50;1.40;;;23.60;46.90;;;;;;5062449;28;20185;-60
2022/07/18 03:29:54;;;;;;;1.63;1.53;;;23.60;46.90;;;;;;5061260;28;20494;-63
2022/07/18 03:32:20;;;;;;;1.40;1.30;;;23.60;47.00;;;;;;5062626;28;20612;-67
2022/07/18 03:34:46;;;;;;;1.40;1.30;;;23.60;47.00;;;;;;5073248;28;20205;-70
2022/07/18 03:37:13;;;;;;;1.30;1.20;;;23.60;46.90;;;;;;5066061;28;20186;-69
2022/07/18 03:39:38;;;;;;;1.50;1.40;;;23.60;47.00;;;;;;5061681;28;20348;-58
2022/07/18 03:42:04;;;;;;;1.30;1.20;;;23.60;47.00;;;;;;5066431;28;21043;-68
2022/07/18 03:44:29;;;;;;;1.43;1.33;;;23.60;47.00;;;;;;5063057;28;20227;-61
2022/07/18 03:46:55;;;;;;;1.40;1.30;;;23.60;47.00;;;;;;5062371;28;20195;-57
2022/07/18 03:49:21;;;;;;;1.40;1.30;;;23.60;47.00;;;;;;5067141;28;20186;-56
2022/07/18 03:51:47;;;;;;;1.40;1.30;;;23.60;46.90;;;;;;5073495;28;20192;-67
2022/07/18 03:54:13;;;;;;;1.40;1.30;;;23.60;47.00;;;;;;5071538;28;20480;-60
2022/07/18 03:56:39;;;;;;;1.30;1.20;;;23.60;46.90;;;;;;5068354;28;20556;-67
2022/07/18 03:59:04;;;;;;;1.60;1.50;;;23.60;47.00;;;;;;5065443;28;20896;-64
2022/07/18 04:01:30;;;;;;;1.47;1.37;;;23.60;46.90;;;;;;5067999;28;20181;-62
2022/07/18 04:03:56;;;;;;;1.40;1.30;;;23.60;46.80;;;;;;5061857;28;20235;-68
2022/07/18 04:06:21;;;;;;;1.33;1.23;;;23.60;46.90;;;;;;5077820;28;20628;-64
2022/07/18 04:08:47;;;;;;;1.40;1.30;;;23.60;46.80;;;;;;5062793;28;20202;-60
2022/07/18 04:11:13;;;;;;;1.50;1.40;;;23.60;46.90;;;;;;5063258;28;20197;-65
2022/07/18 04:13:39;;;;;;;1.30;1.20;;;23.60;46.90;;;;;;5072441;28;20745;-63
2022/07/18 04:16:05;;;;;;;1.20;1.10;;;23.60;46.80;;;;;;5062894;28;20278;-63
2022/07/18 04:18:32;;;;;;;1.50;1.40;;;23.60;46.90;;;;;;5062166;28;20553;-62
2022/07/18 04:20:57;;;;;;;1.33;1.23;;;23.60;46.90;;;;;;5072981;28;20464;-57
2022/07/18 04:23:23;;;;;;;1.20;1.10;;;23.60;46.90;;;;;;5066664;28;20216;-62
2022/07/18 04:25:49;;;;;;;1.30;1.20;;;23.60;46.80;;;;;;5063519;28;20185;-68
2022/07/18 04:28:15;;;;;;;1.30;1.20;;;23.60;46.80;;;;;;5064665;28;20182;-59
2022/07/18 04:30:43;;;;;;;1.53;1.43;;;23.60;46.80;;;;;;5066401;28;20434;-65
2022/07/18 04:33:10;;;;;;;1.30;1.20;;;23.60;46.80;;;;;;5061310;28;20188;-57
2022/07/18 04:35:37;;;;;;;1.33;1.10;;;23.60;46.80;;;;;;5067589;28;20425;-61
2022/07/18 04:38:05;;;;;;;1.20;1.10;;;23.60;46.80;;;;;;5071744;28;20661;-67
2022/07/18 04:40:31;;;;;;;1.40;1.30;;;23.60;46.80;;;;;;5065238;28;20560;-58
2022/07/18 04:42:57;;;;;;;1.30;1.20;;;23.60;46.70;;;;;;5062200;28;20438;-61
2022/07/18 04:45:23;;;;;;;1.30;1.20;;;23.60;46.80;;;;;;5060728;28;22626;-58
2022/07/18 04:47:50;;;;;;;1.40;1.30;;;23.60;46.70;;;;;;5062182;28;20456;-58
2022/07/18 04:50:16;;;;;;;1.50;1.40;;;23.60;46.80;;;;;;5068978;28;20651;-57
2022/07/18 04:52:45;;;;;;;1.40;1.30;;;23.60;46.80;;;;;;5065461;28;20545;-56
2022/07/18 04:55:13;;;;;;;1.37;1.27;;;23.60;46.80;;;;;;5062289;28;20700;-56
2022/07/18 04:57:39;;;;;;;1.10;1.10;;;23.60;46.70;;;;;;5061939;28;20608;-63
2022/07/18 05:00:10;;;;;;;1.30;1.20;;;23.60;46.70;;;;;;5064161;28;20474;-69
2022/07/18 05:02:39;;;;;;;1.20;1.10;;;23.60;46.80;;;;;;5061300;28;20455;-70
2022/07/18 05:05:05;;;;;;;1.20;1.10;;;23.60;46.70;;;;;;5061637;28;20767;-57
2022/07/18 05:07:30;;;;;;;1.30;1.20;;;23.60;46.70;;;;;;5072982;28;20459;-68
2022/07/18 05:09:56;;;;;;;1.30;1.20;;;23.60;46.70;;;;;;5065601;28;20433;-60
2022/07/18 05:12:23;;;;;;;4.70;1.40;;;23.60;46.70;;;;;;5061230;28;20233;-63
2022/07/18 05:14:49;;;;;;;1.20;1.10;;;23.60;46.70;;;;;;5071542;28;20191;-69
2022/07/18 05:17:15;;;;;;;1.30;1.20;;;23.60;46.70;;;;;;5067319;28;20427;-61
2022/07/18 05:19:40;;;;;;;1.40;1.30;;;23.60;46.70;;;;;;5062522;28;20517;-66
2022/07/18 05:22:06;;;;;;;1.37;1.27;;;23.60;46.70;;;;;;5073420;28;20184;-58
2022/07/18 05:24:32;;;;;;;1.90;1.60;;;23.60;46.70;;;;;;5067967;28;20178;-57
2022/07/18 05:26:58;;;;;;;1.60;1.50;;;23.60;46.70;;;;;;5066711;28;20430;-61
2022/07/18 05:29:23;;;;;;;1.80;1.70;;;23.60;46.70;;;;;;5066207;28;20174;-61
2022/07/18 05:31:52;;;;;;;1.60;1.50;;;23.60;46.70;;;;;;5064591;28;20647;-58
2022/07/18 05:34:18;;;;;;;2.47;2.27;;;23.60;46.70;;;;;;5065618;28;20190;-62
2022/07/18 05:36:43;;;;;;;2.23;2.13;;;23.60;46.70;;;;;;5068797;28;20431;-62
2022/07/18 05:39:09;;;;;;;2.87;2.67;;;23.60;46.60;;;;;;5067260;28;20220;-69
2022/07/18 05:41:35;;;;;;;2.73;2.53;;;23.60;46.90;;;;;;5067576;28;20173;-60
2022/07/18 05:44:01;;;;;;;2.53;2.43;;;23.60;46.60;;;;;;5062735;28;21591;-58
2022/07/18 05:46:26;;;;;;;2.13;2.03;;;23.60;46.60;;;;;;5064063;28;20189;-57
2022/07/18 05:48:53;;;;;;;2.10;2.00;;;23.60;46.60;;;;;;5066930;28;20177;-60
2022/07/18 05:51:20;;;;;;;2.03;1.90;;;23.60;46.60;;;;;;5062012;28;21020;-58
2022/07/18 05:53:46;;;;;;;2.10;2.00;;;23.60;46.60;;;;;;5072144;28;20518;-60
2022/07/18 05:56:12;;;;;;;2.57;2.47;;;23.60;46.60;;;;;;5060441;28;20433;-56
2022/07/18 05:58:37;;;;;;;2.40;2.20;;;23.60;46.60;;;;;;5060761;28;20512;-58
2022/07/18 06:01:03;;;;;;;2.50;2.30;;;23.60;46.60;;;;;;5062845;28;20199;-63
2022/07/18 06:03:30;;;;;;;2.67;2.47;;;23.60;46.60;;;;;;5059582;28;20170;-59
2022/07/18 06:05:55;;;;;;;3.33;2.90;;;23.60;46.50;;;;;;5060440;28;20181;-63
2022/07/18 06:08:22;;;;;;;2.60;2.40;;;23.60;46.50;;;;;;5073059;28;20437;-62
2022/07/18 06:10:47;;;;;;;3.13;2.93;;;23.60;46.50;;;;;;5062383;28;20209;-69
2022/07/18 06:13:13;;;;;;;2.53;2.33;;;23.60;46.60;;;;;;5057815;28;20518;-68
2022/07/18 06:15:39;;;;;;;2.90;2.70;;;23.60;46.50;;;;;;5060677;28;20199;-67
2022/07/18 06:18:04;;;;;;;2.83;2.63;;;23.60;46.50;;;;;;5066418;28;20821;-57
2022/07/18 06:20:30;;;;;;;2.10;2.00;;;23.60;46.50;;;;;;5063898;28;20671;-60
2022/07/18 06:22:55;;;;;;;2.40;2.30;;;23.60;46.50;;;;;;5066531;28;20212;-57
2022/07/18 06:25:21;;;;;;;3.07;2.87;;;23.60;46.50;;;;;;5071623;28;20616;-59
2022/07/18 06:27:47;;;;;;;2.47;2.37;;;23.60;46.40;;;;;;5060425;28;20188;-61
2022/07/18 06:30:13;;;;;;;2.53;2.43;;;23.60;46.40;;;;;;5058773;28;20299;-70
2022/07/18 06:32:39;;;;;;;2.63;2.43;;;23.60;46.40;;;;;;5061437;28;20188;-60
2022/07/18 06:35:06;;;;;;;2.40;2.30;;;23.60;47.10;;;;;;5063771;28;20436;-68
2022/07/18 06:37:31;;;;;;;2.20;2.10;;;23.60;46.30;;;;;;5059619;28;20430;-68
2022/07/18 06:39:57;;;;;;;1.90;1.80;;;23.60;46.30;;;;;;5067859;28;20487;-62
2022/07/18 06:42:23;;;;;;;2.20;2.10;;;23.60;46.30;;;;;;5060427;28;20189;-65
2022/07/18 06:44:49;;;;;;;2.10;2.00;;;23.60;46.30;;;;;;5063871;28;20180;-57
2022/07/18 06:47:14;;;;;;;1.87;1.77;;;23.60;46.30;;;;;;5059786;28;21907;-68
2022/07/18 06:49:40;;;;;;;2.00;1.90;;;23.60;46.20;;;;;;5059622;28;20479;-69
2022/07/18 06:52:07;;;;;;;2.63;1.70;;;23.60;46.20;;;;;;5064446;28;20913;-60
2022/07/18 06:54:36;;;;;;;2.00;1.90;;;23.60;46.20;;;;;;5080381;28;20185;-57
2022/07/18 06:57:06;;;;;;;1.70;1.60;;;23.60;46.10;;;;;;5068289;28;20437;-64
2022/07/18 06:59:33;;;;;;;2.13;2.03;;;23.60;46.20;;;;;;5060192;28;20471;-57
2022/07/18 07:01:59;;;;;;;1.83;1.73;;;23.60;46.20;;;;;;5063599;28;20488;-63
2022/07/18 07:04:26;;;;;;;1.97;1.87;;;23.50;46.10;;;;;;5063489;28;20431;-56
2022/07/18 07:06:51;;;;;;;1.90;1.80;;;23.60;46.20;;;;;;5063828;28;20506;-62
2022/07/18 07:09:18;;;;;;;1.77;1.67;;;23.60;46.10;;;;;;5068204;28;20916;-59
2022/07/18 07:11:44;;;;;;;1.80;1.70;;;23.60;46.10;;;;;;5073385;28;20273;-59
2022/07/18 07:14:10;;;;;;;1.63;1.53;;;23.60;46.10;;;;;;5065323;28;20572;-69
2022/07/18 07:16:36;;;;;;;1.60;1.50;;;23.60;46.10;;;;;;5075544;28;20554;-60
2022/07/18 07:19:02;;;;;;;1.70;1.60;;;23.60;46.10;;;;;;5068546;28;20848;-62
2022/07/18 07:21:29;;;;;;;1.90;1.80;;;23.60;46.10;;;;;;5064550;28;20330;-65
2022/07/18 07:23:55;;;;;;;1.40;1.30;;;23.60;46.10;;;;;;5067220;28;20185;-58
2022/07/18 07:26:21;;;;;;;1.33;1.23;;;23.60;46.10;;;;;;5070165;28;20451;-68
2022/07/18 07:28:47;;;;;;;1.60;1.50;;;23.60;46.10;;;;;;5065725;28;20429;-65
2022/07/18 07:31:12;;;;;;;2.10;1.53;;;23.60;46.10;;;;;;5065022;28;20429;-64
2022/07/18 07:33:38;;;;;;;1.97;1.87;;;23.60;46.10;;;;;;5059942;28;20826;-60
2022/07/18 07:36:04;;;;;;;1.60;1.50;;;23.60;46.10;;;;;;5059507;28;20650;-57
2022/07/18 07:38:30;;;;;;;1.63;1.53;;;23.60;46.10;;;;;;5059782;28;20533;-57
2022/07/18 07:40:57;;;;;;;1.87;1.70;;;23.60;46.10;;;;;;5070781;28;20414;-69
2022/07/18 07:43:24;;;;;;;1.80;1.70;;;23.60;46.10;;;;;;5068698;28;20196;-57
2022/07/18 07:45:52;;;;;;;1.50;1.40;;;23.60;46.10;;;;;;5067023;28;20632;-59
2022/07/18 07:48:18;;;;;;;1.60;1.50;;;23.60;46.00;;;;;;5067088;28;20534;-70
2022/07/18 07:50:43;;;;;;;1.60;1.50;;;23.60;46.10;;;;;;5064433;28;20553;-57
2022/07/18 07:53:09;;;;;;;1.57;1.47;;;23.60;46.10;;;;;;5064484;28;20193;-63
2022/07/18 07:55:35;;;;;;;1.50;1.40;;;23.60;46.10;;;;;;5064927;28;20291;-63
2022/07/18 07:58:04;;;;;;;1.50;1.40;;;23.60;46.00;;;;;;5076316;28;20546;-66
2022/07/18 08:00:31;;;;;;;1.33;1.23;;;23.60;46.00;;;;;;5067732;28;20466;-65
2022/07/18 08:03:03;;;;;;;1.50;1.40;;;23.60;46.00;;;;;;5061914;28;20456;-63
2022/07/18 08:05:38;;;;;;;1.80;1.70;;;23.60;46.00;;;;;;5066716;28;20870;-57
2022/07/18 08:08:05;;;;;;;1.60;1.50;;;23.60;46.10;;;;;;5062457;28;22311;-70
2022/07/18 08:10:32;;;;;;;1.50;1.40;;;23.60;46.10;;;;;;5062256;28;20430;-62
2022/07/18 08:12:59;;;;;;;1.50;1.40;;;23.60;46.00;;;;;;5075929;28;20430;-59
2022/07/18 08:15:25;;;;;;;1.47;1.37;;;23.60;46.00;;;;;;5071463;28;20544;-56
2022/07/18 08:17:51;;;;;;;1.50;1.40;;;23.60;46.00;;;;;;5065139;28;21467;-59
2022/07/18 08:20:17;;;;;;;1.60;1.50;;;23.60;46.00;;;;;;5067271;28;20883;-64
2022/07/18 08:23:06;;;;;;;1.50;1.40;;;23.60;46.00;;;;;;5068439;28;20430;-65
2022/07/18 08:25:36;;;;;;;1.40;1.30;;;23.60;46.00;;;;;;5068314;28;20177;-60
2022/07/18 08:28:03;;;;;;;1.57;1.47;;;23.60;46.10;;;;;;5078393;28;20430;-60
2022/07/18 08:30:30;;;;;;;1.43;1.33;;;23.60;46.10;;;;;;5066803;28;20935;-58
2022/07/18 08:32:56;;;;;;;1.67;1.57;;;23.60;46.10;;;;;;5063472;28;20427;-71
2022/07/18 08:35:22;;;;;;;1.30;1.20;;;23.60;46.10;;;;;;5062449;28;20443;-58
2022/07/18 08:37:48;;;;;;;1.40;1.30;;;23.60;46.10;;;;;;5062519;28;20196;-62
2022/07/18 08:40:14;;;;;;;1.60;1.50;;;23.60;46.20;;;;;;5068733;28;20796;-66
2022/07/18 08:42:39;;;;;;;1.50;1.40;;;23.60;46.10;;;;;;5070932;28;20211;-58
2022/07/18 08:45:06;;;;;;;1.30;1.20;;;23.60;46.10;;;;;;5065988;28;20193;-69
2022/07/18 08:47:32;;;;;;;1.23;1.13;;;23.60;46.10;;;;;;5061943;28;20618;-62
2022/07/18 08:50:00;;;;;;;1.50;1.40;;;23.60;46.20;;;;;;5061339;28;20451;-58
2022/07/18 08:52:28;;;;;;;1.20;1.10;;;23.60;46.20;;;;;;5060951;28;20445;-70
2022/07/18 08:54:54;;;;;;;1.40;1.30;;;23.60;46.20;;;;;;5060935;28;20966;-63
2022/07/18 08:57:21;;;;;;;2.63;1.83;;;23.60;46.20;;;;;;5061365;28;20465;-59
2022/07/18 08:59:47;;;;;;;1.67;1.57;;;23.60;46.10;;;;;;5077333;28;20885;-69
2022/07/18 09:02:12;;;;;;;1.57;1.47;;;23.60;46.20;;;;;;5064986;28;20417;-57
2022/07/18 09:04:43;;;;;;;1.40;1.30;;;23.60;46.20;;;;;;5065509;28;20193;-65
2022/07/18 09:07:10;;;;;;;1.30;1.20;;;23.60;46.20;;;;;;5065505;28;20212;-57
2022/07/18 09:09:38;;;;;;;1.50;1.40;;;23.60;47.10;;;;;;5065209;28;20451;-69
2022/07/18 09:12:06;;;;;;;1.30;1.20;;;23.60;46.20;;;;;;5064642;28;20429;-59
2022/07/18 09:14:44;;;;;;;1.50;1.40;;;23.60;46.20;;;;;;5071103;28;20637;-59
2022/07/18 09:17:25;;;;;;;1.70;1.60;;;23.60;46.20;;;;;;5066797;28;20444;-70
2022/07/18 09:20:01;;;;;;;1.43;1.33;;;23.60;46.20;;;;;;5067028;28;20845;-63
2022/07/18 09:22:33;;;;;;;2.40;1.40;;;23.60;46.20;;;;;;5065968;28;20438;-63
2022/07/18 09:25:09;;;;;;;1.30;1.20;;;23.60;46.30;;;;;;5064792;28;20834;-69
2022/07/18 09:27:39;;;;;;;1.30;1.20;;;23.60;46.30;;;;;;5066413;28;20422;-57
2022/07/18 09:30:11;;;;;;;1.40;1.30;;;23.70;46.30;;;;;;5072503;28;20429;-62
2022/07/18 09:32:38;;;;;;;1.60;1.50;;;23.60;46.20;;;;;;5064896;28;20445;-59
2022/07/18 09:35:12;;;;;;;1.40;1.30;;;23.60;46.30;;;;;;5064824;28;20704;-58
2022/07/18 09:37:39;;;;;;;1.40;1.30;;;23.60;46.30;;;;;;5061143;28;20437;-69
2022/07/18 09:40:19;;;;;;;1.30;1.20;;;23.60;46.30;;;;;;5061447;28;21663;-58
2022/07/18 09:42:50;;;;;;;1.50;1.40;;;23.60;46.30;;;;;;5061127;28;20846;-59
2022/07/18 09:45:25;;;;;;;1.50;1.40;;;23.60;46.30;;;;;;5073204;28;20488;-59
2022/07/18 09:48:12;;;;;;;1.30;1.20;;;23.60;46.30;;;;;;5067500;28;20433;-68
2022/07/18 09:50:41;;;;;;;1.30;1.20;;;23.60;46.40;;;;;;5065608;28;20444;-57
2022/07/18 09:53:15;;;;;;;1.40;1.30;;;23.60;46.30;;;;;;5070021;28;20438;-63
2022/07/18 09:55:49;;;;;;;1.53;1.40;;;23.60;46.40;;;;;;5061070;28;20430;-69
2022/07/18 09:58:20;;;;;;;1.40;1.30;;;23.60;46.40;;;;;;5059630;28;22814;-67
2022/07/18 10:00:48;;;;;;;1.53;1.43;;;23.60;46.40;;;;;;5070425;28;20462;-61
2022/07/18 10:03:14;;;;;;;1.43;1.33;;;23.60;46.40;;;;;;5067128;28;20437;-64
2022/07/18 10:05:41;;;;;;;1.30;1.20;;;23.60;46.40;;;;;;5063465;28;20943;-57
2022/07/18 10:08:10;;;;;;;1.30;1.20;;;23.60;46.40;;;;;;5063716;28;20454;-58
2022/07/18 10:10:38;;;;;;;1.30;1.20;;;23.60;46.40;;;;;;5063842;28;20487;-58
2022/07/18 10:13:05;;;;;;;1.20;1.10;;;23.60;46.40;;;;;;5061312;28;20438;-58
2022/07/18 10:15:34;;;;;;;1.57;1.47;;;23.60;46.40;;;;;;5083102;28;20861;-56
2022/07/18 10:18:01;;;;;;;1.30;1.20;;;23.70;46.50;;;;;;5066113;28;20507;-60
2022/07/18 10:20:33;;;;;;;1.30;1.20;;;23.70;46.60;;;;;;5061460;28;20457;-69
2022/07/18 10:23:22;;;;;;;1.40;1.30;;;23.60;46.40;;;;;;5061582;28;20935;-62
2022/07/18 10:26:24;;;;;;;1.40;1.30;;;23.60;46.40;;;;;;5062678;28;20444;-65
2022/07/18 10:28:55;;;;;;;1.23;1.13;;;23.60;46.40;;;;;;5053909;28;20448;-61
2022/07/18 10:31:22;;;;;;;1.37;1.27;;;23.70;46.60;;;;;;5066999;28;20462;-60
2022/07/18 10:33:48;;;;;;;1.50;1.40;;;23.60;46.50;;;;;;5061905;28;20433;-64
2022/07/18 10:36:21;;;;;;;1.30;1.20;;;23.60;46.50;;;;;;5065128;28;21492;-65
2022/07/18 10:39:07;;;;;;;1.30;1.20;;;23.60;46.50;;;;;;5062534;28;20173;-69
2022/07/18 10:42:02;;;;;;;1.27;1.17;;;23.60;46.50;;;;;;5059847;28;20977;-57
2022/07/18 10:44:31;;;;;;;1.40;1.30;;;23.60;46.50;;;;;;5067310;28;20923;-62
2022/07/18 10:47:20;;;;;;;1.30;1.20;;;23.60;46.50;;;;;;5068494;28;21022;-66
2022/07/18 10:49:53;;;;;;;1.27;1.17;;;23.70;46.60;;;;;;5059601;28;20429;-56
2022/07/18 10:52:28;;;;;;;1.43;1.33;;;23.60;46.50;;;;;;5062044;28;20440;-64
2022/07/18 10:55:04;;;;;;;1.40;1.30;;;23.60;46.50;;;;;;5059933;28;20781;-69
2022/07/18 10:57:35;;;;;;;1.47;1.37;;;23.60;46.50;;;;;;5062566;28;21042;-68
2022/07/18 11:00:22;;;;;;;1.50;1.40;;;23.70;46.60;;;;;;5068074;28;20475;-60
2022/07/18 11:03:04;;;;;;;2.10;1.30;;;23.60;46.50;;;;;;5065163;28;20429;-60
2022/07/18 11:05:30;;;;;;;1.33;1.23;;;23.60;46.50;;;;;;5066294;28;20418;-56
2022/07/18 11:08:01;;;;;;;1.40;1.30;;;23.70;46.70;;;;;;5061981;28;20425;-57
2022/07/18 11:10:53;;;;;;;1.40;1.30;;;23.60;46.70;;;;;;5061296;28;20201;-56
2022/07/18 11:13:25;;;;;;;1.40;1.30;;;23.60;46.60;;;;;;5059538;28;20852;-67
2022/07/18 11:16:06;;;;;;;1.77;1.27;;;23.60;46.60;;;;;;5064585;28;20780;-59
2022/07/18 11:18:53;;;;;;;1.30;1.20;;;23.60;46.50;;;;;;5068376;28;20837;-59
2022/07/18 11:21:32;;;;;;;1.40;1.30;;;23.60;46.60;;;;;;5054903;28;20454;-57
2022/07/18 11:24:03;;;;;;;1.30;1.20;;;23.60;46.60;;;;;;5067436;28;20457;-57
2022/07/18 11:26:29;;;;;;;1.20;1.10;;;23.60;46.60;;;;;;5064049;28;20975;-58
2022/07/18 11:29:01;;;;;;;1.50;1.40;;;23.60;46.60;;;;;;5063662;28;20514;-57
2022/07/18 11:31:27;;;;;;;1.40;1.30;;;23.60;46.60;;;;;;5067682;28;20964;-58
2022/07/18 11:33:54;;;;;;;1.30;1.20;;;23.70;46.70;;;;;;5077757;28;20426;-58
2022/07/18 11:36:30;;;;;;;1.20;1.10;;;23.60;47.30;;;;;;5069545;28;20410;-59
2022/07/18 11:39:00;;;;;;;1.30;1.20;;;23.60;46.60;;;;;;5063103;28;20451;-63
2022/07/18 11:41:27;;;;;;;1.40;1.30;;;23.60;46.60;;;;;;5062559;28;20430;-69
2022/07/18 11:43:57;;;;;;;1.40;1.30;;;23.70;46.70;;;;;;5062758;28;20562;-61
2022/07/18 11:46:25;;;;;;;1.50;1.40;;;23.60;46.60;;;;;;5062908;28;20779;-65
2022/07/18 11:49:12;;;;;;;1.30;1.20;;;23.70;47.00;;;;;;5077764;28;22324;-61
2022/07/18 11:51:40;;;;;;;1.30;1.20;;;23.70;46.60;;;;;;5067327;28;20433;-56
2022/07/18 11:54:06;;;;;;;1.50;1.40;;;23.70;46.70;;;;;;5065802;28;20943;-64
2022/07/18 11:56:32;;;;;;;1.30;1.20;;;23.60;46.60;;;;;;5064311;28;20430;-57
2022/07/18 11:58:58;;;;;;;1.20;1.10;;;23.70;46.70;;;;;;5064343;28;20196;-58
2022/07/18 12:01:33;;;;;;;1.50;1.40;;;23.70;46.70;;;;;;5065909;28;20177;-63
2022/07/18 12:03:59;;;;;;;1.30;1.20;;;23.60;47.30;;;;;;5076968;28;20429;-61
2022/07/18 12:06:27;;;;;;;1.43;1.33;;;23.60;46.60;;;;;;5069380;28;20439;-60
2022/07/18 12:09:03;;;;;;;1.30;1.20;;;23.60;46.70;;;;;;5064174;28;20438;-68
2022/07/18 12:11:29;;;;;;;1.53;1.43;;;23.60;46.60;;;;;;5065438;28;20904;-66
2022/07/18 12:14:04;;;;;;;1.40;1.30;;;23.60;46.60;;;;;;5073834;28;20911;-57
2022/07/18 12:16:34;;;;;;;1.83;1.10;;;23.70;46.60;;;;;;5065321;28;20433;-68
2022/07/18 12:19:24;;;;;;;1.57;1.47;;;23.60;46.60;;;;;;5072292;28;20513;-56
2022/07/18 12:21:54;;;;;;;1.40;1.30;;;23.70;46.70;;;;;;5069791;28;22583;-57
2022/07/18 12:24:34;;;;;;;1.40;1.30;;;23.70;46.70;;;;;;5063298;28;20443;-70
2022/07/18 12:27:22;;;;;;;1.27;1.17;;;23.60;46.50;;;;;;5067632;28;20923;-62
2022/07/18 12:30:11;;;;;;;1.30;1.20;;;23.60;46.60;;;;;;5064707;28;20437;-60
2022/07/18 12:32:40;;;;;;;1.30;1.20;;;23.60;46.60;;;;;;5065640;28;20433;-58
2022/07/18 12:35:12;;;;;;;1.40;1.30;;;23.70;46.70;;;;;;5078811;28;20540;-56
2022/07/18 12:37:39;;;;;;;1.83;1.33;;;23.60;46.60;;;;;;5066120;28;20847;-67
2022/07/18 12:40:10;;;;;;;1.40;1.30;;;23.60;46.60;;;;;;5070011;28;20457;-68
2022/07/18 12:42:41;;;;;;;1.37;1.27;;;23.60;46.60;;;;;;5063642;28;20618;-62
2022/07/18 12:45:08;;;;;;;1.30;1.20;;;23.70;46.70;;;;;;5065988;28;23820;-58
2022/07/18 12:47:34;;;;;;;1.50;1.40;;;23.60;46.60;;;;;;5062810;28;20426;-69
2022/07/18 12:50:00;;;;;;;1.37;1.27;;;23.60;46.60;;;;;;5076658;28;20437;-56
2022/07/18 12:52:26;;;;;;;1.30;1.20;;;23.60;46.60;;;;;;5068168;28;20185;-57
2022/07/18 12:54:52;;;;;;;1.40;1.30;;;23.60;46.60;;;;;;5066276;28;20169;-60
2022/07/18 12:57:19;;;;;;;1.30;1.20;;;23.70;46.70;;;;;;5065393;28;20507;-59
2022/07/18 12:59:45;;;;;;;1.30;1.20;;;23.60;46.60;;;;;;5059672;28;20638;-70